Time;durP1;ratioP1;P1;durP2;ratioP2;P2;SDS_P1;SDS_P2;PMS_P1;PMS_P2;Temp;Humidity;BMP_temperature;BMP_pressure;BME280_temperature;BME280_humidity;BME280_pressure;Samples;Min_cycle;Max_cycle;Signal;HPM_P1;HPM_P2
2021/11/15 00:01:13;;;;;;;18.90;14.50;;;9.10;99.90;;;;;;5031517;28;20445;-64
2021/11/15 00:03:42;;;;;;;19.20;13.97;;;9.10;99.90;;;;;;5031253;28;20457;-64
2021/11/15 00:06:09;;;;;;;22.70;15.50;;;9.10;99.90;;;;;;5030459;28;20994;-66
2021/11/15 00:08:36;;;;;;;19.40;13.53;;;9.10;99.90;;;;;;5030455;28;20448;-65
2021/11/15 00:11:03;;;;;;;22.57;15.40;;;9.10;99.90;;;;;;5031314;28;21011;-64
2021/11/15 00:13:30;;;;;;;19.93;14.50;;;9.10;99.90;;;;;;5031451;28;20489;-65
2021/11/15 00:15:57;;;;;;;18.50;13.40;;;9.10;99.90;;;;;;5031736;28;20473;-64
2021/11/15 00:18:24;;;;;;;21.83;13.43;;;9.10;99.90;;;;;;5030127;28;20442;-64
2021/11/15 00:20:53;;;;;;;19.48;13.90;;;9.10;99.90;;;;;;5030848;28;20940;-65
2021/11/15 00:23:20;;;;;;;20.90;13.37;;;9.00;99.90;;;;;;5031498;28;20199;-64
2021/11/15 00:25:47;;;;;;;23.07;14.60;;;9.00;99.90;;;;;;5030999;28;20448;-65
2021/11/15 00:28:14;;;;;;;18.30;13.90;;;9.00;99.90;;;;;;5029923;28;20533;-65
2021/11/15 00:30:41;;;;;;;19.90;15.30;;;9.00;99.90;;;;;;5030747;28;20943;-65
2021/11/15 00:33:07;;;;;;;20.13;13.90;;;8.90;99.90;;;;;;5031037;28;20511;-65
2021/11/15 00:35:34;;;;;;;20.17;13.53;;;8.90;99.90;;;;;;5030959;28;20863;-66
2021/11/15 00:38:03;;;;;;;25.77;16.10;;;8.90;99.90;;;;;;5029771;28;20544;-63
2021/11/15 00:40:30;;;;;;;21.90;15.30;;;8.90;99.90;;;;;;5030756;28;20524;-65
2021/11/15 00:42:57;;;;;;;21.53;14.53;;;8.90;99.90;;;;;;5030817;28;20960;-65
2021/11/15 00:45:24;;;;;;;26.13;14.73;;;8.90;99.90;;;;;;5030598;28;20485;-65
2021/11/15 00:47:51;;;;;;;20.53;15.50;;;8.90;99.90;;;;;;5029390;28;21019;-65
2021/11/15 00:50:21;;;;;;;20.80;13.33;;;8.90;99.90;;;;;;5030858;28;20449;-65
2021/11/15 00:52:49;;;;;;;22.10;14.57;;;8.90;99.90;;;;;;5030617;28;20509;-64
2021/11/15 00:55:19;;;;;;;19.20;13.60;;;8.90;99.90;;;;;;5030557;28;20453;-65
2021/11/15 00:57:46;;;;;;;20.90;14.13;;;8.90;99.90;;;;;;5029031;28;20469;-64
2021/11/15 01:00:16;;;;;;;21.73;15.60;;;8.90;99.90;;;;;;5030620;28;20549;-64
2021/11/15 01:02:43;;;;;;;22.07;14.10;;;8.90;99.90;;;;;;5030144;28;20874;-64
2021/11/15 01:05:11;;;;;;;20.90;13.00;;;8.90;99.90;;;;;;5030400;28;20973;-64
2021/11/15 01:07:37;;;;;;;19.40;13.80;;;8.90;99.90;;;;;;5028892;28;20473;-64
2021/11/15 01:10:06;;;;;;;19.90;12.70;;;8.90;99.90;;;;;;5030170;28;20977;-63
2021/11/15 01:12:34;;;;;;;20.63;14.77;;;8.90;99.90;;;;;;5030103;28;20484;-66
2021/11/15 01:15:02;;;;;;;20.10;14.40;;;8.90;99.90;;;;;;5030604;28;20453;-65
2021/11/15 01:17:28;;;;;;;22.00;14.80;;;8.90;99.90;;;;;;5028801;28;20482;-63
2021/11/15 01:19:55;;;;;;;18.97;13.70;;;9.00;99.90;;;;;;5030182;28;20454;-66
2021/11/15 01:22:22;;;;;;;22.23;14.60;;;9.00;99.90;;;;;;5030396;28;20454;-65
2021/11/15 01:24:49;;;;;;;21.57;14.63;;;8.90;99.90;;;;;;5029897;28;20434;-65
2021/11/15 01:27:16;;;;;;;27.70;14.77;;;8.90;99.90;;;;;;5029121;28;20527;-65
2021/11/15 01:29:45;;;;;;;21.30;15.07;;;8.90;99.90;;;;;;5030127;28;20536;-65
2021/11/15 01:32:12;;;;;;;20.37;14.80;;;8.90;99.90;;;;;;5029560;28;20824;-64
2021/11/15 01:34:39;;;;;;;25.03;14.50;;;8.80;99.90;;;;;;5030210;28;20590;-63
2021/11/15 01:37:06;;;;;;;25.87;15.60;;;8.80;99.90;;;;;;5028693;28;20485;-65
2021/11/15 01:39:33;;;;;;;25.07;16.50;;;8.80;99.90;;;;;;5029752;28;20953;-65
2021/11/15 01:42:00;;;;;;;22.97;16.20;;;8.80;99.90;;;;;;5034193;28;20441;-65
2021/11/15 01:44:27;;;;;;;24.73;15.53;;;8.70;99.90;;;;;;5048447;28;20443;-64
2021/11/15 01:46:55;;;;;;;23.33;15.50;;;8.70;99.90;;;;;;5048559;28;20494;-64
2021/11/15 01:49:22;;;;;;;21.63;15.80;;;8.70;99.90;;;;;;5049576;28;20451;-65
2021/11/15 01:51:49;;;;;;;27.17;16.60;;;8.70;99.90;;;;;;5049484;28;20935;-65
2021/11/15 01:54:16;;;;;;;23.07;15.60;;;8.70;99.90;;;;;;5049924;28;20484;-66
2021/11/15 01:56:43;;;;;;;23.80;16.83;;;8.70;99.90;;;;;;5048567;28;20468;-64
2021/11/15 01:59:10;;;;;;;22.33;15.30;;;8.70;99.90;;;;;;5049767;28;20444;-65
2021/11/15 02:01:37;;;;;;;25.10;15.60;;;8.70;99.90;;;;;;5049484;28;20449;-65
2021/11/15 02:04:05;;;;;;;21.07;15.00;;;8.60;99.90;;;;;;5049668;28;20902;-64
2021/11/15 02:06:32;;;;;;;18.17;13.57;;;8.60;99.90;;;;;;5048281;28;20475;-65
2021/11/15 02:08:59;;;;;;;21.77;14.07;;;8.60;99.90;;;;;;5050054;28;20455;-64
2021/11/15 02:11:26;;;;;;;21.30;15.20;;;8.70;99.90;;;;;;5049261;28;20457;-64
2021/11/15 02:13:53;;;;;;;21.50;15.27;;;8.60;99.90;;;;;;5049575;28;20476;-65
2021/11/15 02:16:20;;;;;;;22.33;14.40;;;8.70;99.90;;;;;;5048356;28;20809;-65
2021/11/15 02:18:47;;;;;;;24.87;14.90;;;8.70;99.90;;;;;;5049338;28;20851;-64
2021/11/15 02:21:16;;;;;;;16.13;14.30;;;8.70;99.90;;;;;;5049119;28;20441;-65
2021/11/15 02:23:44;;;;;;;20.63;14.47;;;8.70;99.90;;;;;;5049533;28;20520;-64
2021/11/15 02:26:13;;;;;;;21.47;13.83;;;8.70;99.90;;;;;;5049178;28;20828;-64
2021/11/15 02:28:44;;;;;;;19.40;14.17;;;8.70;99.90;;;;;;5048805;28;20444;-62
2021/11/15 02:31:13;;;;;;;18.33;13.20;;;8.70;99.90;;;;;;5049380;28;20447;-65
2021/11/15 02:33:40;;;;;;;21.80;14.17;;;8.70;99.90;;;;;;5048958;28;20506;-65
2021/11/15 02:36:08;;;;;;;20.87;14.30;;;8.70;99.90;;;;;;5049356;28;20468;-63
2021/11/15 02:38:38;;;;;;;19.93;14.20;;;8.70;99.90;;;;;;5048030;28;20444;-64
2021/11/15 02:41:06;;;;;;;22.67;14.27;;;8.60;99.90;;;;;;5049619;28;20448;-65
2021/11/15 02:43:33;;;;;;;18.23;13.53;;;8.70;99.90;;;;;;5050382;28;20436;-64
2021/11/15 02:46:00;;;;;;;18.37;13.50;;;8.70;99.90;;;;;;5052886;28;20982;-64
2021/11/15 02:48:28;;;;;;;20.90;14.63;;;8.70;99.90;;;;;;5052022;28;20441;-64
2021/11/15 02:50:56;;;;;;;18.10;14.13;;;8.70;99.90;;;;;;5053001;28;20494;-64
2021/11/15 02:53:23;;;;;;;16.77;13.20;;;8.70;99.90;;;;;;5052871;28;20518;-64
2021/11/15 02:55:51;;;;;;;17.40;12.67;;;8.70;99.90;;;;;;5052797;28;20447;-65
2021/11/15 02:58:18;;;;;;;18.00;12.33;;;8.60;99.90;;;;;;5051445;28;20436;-65
2021/11/15 03:00:50;;;;;;;18.70;13.60;;;8.70;99.90;;;;;;5052939;28;20448;-64
2021/11/15 03:03:17;;;;;;;21.60;14.00;;;8.60;99.90;;;;;;5052713;28;20934;-63
2021/11/15 03:05:46;;;;;;;17.20;12.60;;;8.70;99.90;;;;;;5052463;28;20954;-64
2021/11/15 03:08:15;;;;;;;16.00;11.60;;;8.60;99.90;;;;;;5051509;28;20440;-64
2021/11/15 03:10:44;;;;;;;20.70;13.57;;;8.60;99.90;;;;;;5052447;28;20452;-65
2021/11/15 03:13:15;;;;;;;18.43;12.60;;;8.60;99.90;;;;;;5052351;28;20484;-65
2021/11/15 03:15:44;;;;;;;22.20;12.43;;;8.50;99.90;;;;;;5052122;28;20444;-64
2021/11/15 03:18:13;;;;;;;19.40;12.73;;;8.50;99.90;;;;;;5051114;28;20957;-65
2021/11/15 03:20:42;;;;;;;19.70;12.80;;;8.50;99.90;;;;;;5052292;28;20436;-64
2021/11/15 03:23:11;;;;;;;18.03;11.67;;;8.60;99.90;;;;;;5052293;28;20447;-63
2021/11/15 03:25:38;;;;;;;17.37;13.47;;;8.60;99.90;;;;;;5052167;28;20802;-64
2021/11/15 03:28:06;;;;;;;19.70;13.13;;;8.50;99.90;;;;;;5051206;28;20779;-65
2021/11/15 03:30:34;;;;;;;17.83;12.47;;;8.50;99.90;;;;;;5052150;28;20453;-64
2021/11/15 03:33:01;;;;;;;17.63;12.23;;;8.50;99.90;;;;;;5052033;28;20930;-65
2021/11/15 03:35:28;;;;;;;14.40;11.30;;;8.50;99.90;;;;;;5052122;28;20475;-64
2021/11/15 03:37:56;;;;;;;18.13;13.00;;;8.50;99.90;;;;;;5050549;28;20460;-64
2021/11/15 03:40:25;;;;;;;18.97;11.57;;;8.50;99.90;;;;;;5052149;28;20448;-64
2021/11/15 03:42:53;;;;;;;19.03;12.50;;;8.50;99.90;;;;;;5051973;28;20470;-64
2021/11/15 03:45:21;;;;;;;18.27;12.20;;;8.50;99.90;;;;;;5051958;28;20814;-64
2021/11/15 03:47:50;;;;;;;17.17;12.70;;;8.50;99.90;;;;;;5050446;28;20472;-65
2021/11/15 03:50:17;;;;;;;17.50;11.80;;;8.40;99.90;;;;;;5051615;28;20437;-64
2021/11/15 03:52:45;;;;;;;18.07;12.70;;;8.40;99.90;;;;;;5051747;28;20436;-64
2021/11/15 03:55:15;;;;;;;18.53;13.00;;;8.40;99.90;;;;;;5051149;28;20907;-64
2021/11/15 03:57:42;;;;;;;16.07;12.03;;;8.40;99.90;;;;;;5050164;28;20456;-65
2021/11/15 04:00:11;;;;;;;19.47;12.60;;;8.40;99.90;;;;;;5051532;28;20451;-64
2021/11/15 04:02:38;;;;;;;15.93;12.17;;;8.40;99.90;;;;;;5051129;28;20443;-65
2021/11/15 04:05:10;;;;;;;16.20;11.10;;;8.30;99.90;;;;;;5051538;28;21002;-65
2021/11/15 04:07:41;;;;;;;18.23;13.20;;;8.30;99.90;;;;;;5050240;28;20830;-65
2021/11/15 04:10:12;;;;;;;17.60;12.57;;;8.30;99.90;;;;;;5051340;28;20432;-65
2021/11/15 04:12:39;;;;;;;16.73;11.63;;;8.30;99.90;;;;;;5051291;28;20966;-63
2021/11/15 04:15:08;;;;;;;16.03;10.70;;;8.30;99.90;;;;;;5051003;28;20479;-65
2021/11/15 04:17:36;;;;;;;18.33;11.87;;;8.20;99.90;;;;;;5049843;28;20510;-64
2021/11/15 04:20:08;;;;;;;16.03;11.37;;;8.30;99.90;;;;;;5050970;28;20949;-65
2021/11/15 04:22:36;;;;;;;18.03;12.70;;;8.30;99.90;;;;;;5051094;28;20436;-64
2021/11/15 04:25:03;;;;;;;16.07;11.17;;;8.30;99.90;;;;;;5051044;28;20491;-64
2021/11/15 04:27:30;;;;;;;14.03;10.07;;;8.30;99.90;;;;;;5049798;28;20460;-65
2021/11/15 04:29:57;;;;;;;16.43;11.27;;;8.30;99.90;;;;;;5050884;28;20440;-64
2021/11/15 04:32:23;;;;;;;14.70;10.67;;;8.30;99.90;;;;;;5050754;28;20442;-66
2021/11/15 04:34:50;;;;;;;15.10;10.87;;;8.30;99.90;;;;;;5050625;28;20476;-65
2021/11/15 04:37:18;;;;;;;17.17;12.07;;;8.40;99.90;;;;;;5049953;28;20459;-65
2021/11/15 04:39:46;;;;;;;15.33;11.73;;;8.40;99.90;;;;;;5050519;28;20442;-64
2021/11/15 04:42:13;;;;;;;14.57;10.33;;;8.30;99.90;;;;;;5050666;28;20437;-64
2021/11/15 04:44:39;;;;;;;15.53;10.90;;;8.30;99.90;;;;;;5050581;28;20802;-64
2021/11/15 04:47:06;;;;;;;17.03;11.83;;;8.30;99.90;;;;;;5049452;28;20503;-64
2021/11/15 04:49:33;;;;;;;14.67;10.30;;;8.30;99.90;;;;;;5050938;28;20795;-63
2021/11/15 04:52:00;;;;;;;18.30;12.27;;;8.30;99.90;;;;;;5050530;28;20451;-63
2021/11/15 04:54:28;;;;;;;15.07;10.47;;;8.30;99.90;;;;;;5050543;28;20480;-65
2021/11/15 04:56:55;;;;;;;18.00;11.00;;;8.20;99.90;;;;;;5049005;28;21312;-64
2021/11/15 04:59:22;;;;;;;16.83;11.50;;;8.30;99.90;;;;;;5050461;28;20447;-65
2021/11/15 05:01:49;;;;;;;15.73;11.03;;;8.30;99.90;;;;;;5050603;28;20436;-65
2021/11/15 05:04:16;;;;;;;16.13;11.27;;;8.20;99.90;;;;;;5050375;28;20948;-65
2021/11/15 05:06:42;;;;;;;16.73;12.13;;;8.20;99.90;;;;;;5048251;28;20467;-65
2021/11/15 05:09:09;;;;;;;13.87;10.20;;;8.30;99.90;;;;;;5050115;28;20438;-64
2021/11/15 05:11:38;;;;;;;17.57;12.07;;;8.30;99.90;;;;;;5050045;28;20968;-63
2021/11/15 05:14:05;;;;;;;16.67;10.90;;;8.20;99.90;;;;;;5050093;28;20472;-64
2021/11/15 05:16:33;;;;;;;18.77;12.13;;;8.30;99.90;;;;;;5048816;28;20460;-65
2021/11/15 05:19:00;;;;;;;17.23;10.97;;;8.30;99.90;;;;;;5050248;28;20435;-65
2021/11/15 05:21:27;;;;;;;12.63;10.10;;;8.30;99.90;;;;;;5050207;28;20523;-65
2021/11/15 05:23:54;;;;;;;16.67;11.20;;;8.20;99.90;;;;;;5050264;28;20429;-65
2021/11/15 05:26:22;;;;;;;14.93;10.93;;;8.30;99.90;;;;;;5049580;28;20464;-64
2021/11/15 05:28:50;;;;;;;18.40;11.40;;;8.30;99.90;;;;;;5050192;28;20440;-64
2021/11/15 05:31:17;;;;;;;15.40;10.90;;;8.40;99.90;;;;;;5050393;28;20432;-64
2021/11/15 05:33:44;;;;;;;13.30;10.97;;;8.40;99.90;;;;;;5049941;28;20433;-64
2021/11/15 05:36:11;;;;;;;12.53;9.30;;;8.30;99.90;;;;;;5049936;28;20475;-63
2021/11/15 05:38:38;;;;;;;14.27;9.97;;;8.30;99.90;;;;;;5048920;28;20520;-64
2021/11/15 05:41:05;;;;;;;14.97;10.23;;;8.30;99.90;;;;;;5049786;28;20527;-64
2021/11/15 05:43:32;;;;;;;14.53;9.97;;;8.20;99.90;;;;;;5049988;28;20801;-64
2021/11/15 05:46:00;;;;;;;15.67;9.87;;;8.30;99.90;;;;;;5048883;28;20476;-63
2021/11/15 05:48:27;;;;;;;13.30;10.63;;;8.20;99.90;;;;;;5046451;28;20433;-64
2021/11/15 05:50:54;;;;;;;15.90;10.90;;;8.20;99.90;;;;;;5049609;28;20439;-63
2021/11/15 05:53:21;;;;;;;15.80;10.37;;;8.20;99.90;;;;;;5049764;28;20939;-63
2021/11/15 05:55:48;;;;;;;16.40;10.10;;;8.20;99.90;;;;;;5049586;28;20568;-63
2021/11/15 05:58:14;;;;;;;16.60;10.43;;;8.20;99.90;;;;;;5048840;28;20448;-64
2021/11/15 06:00:42;;;;;;;13.20;9.43;;;8.20;99.90;;;;;;5044796;28;20452;-64
2021/11/15 06:03:11;;;;;;;16.80;9.40;;;8.20;99.90;;;;;;5045772;28;20467;-65
2021/11/15 06:05:38;;;;;;;13.20;10.20;;;8.10;99.90;;;;;;5048320;28;20550;-64
2021/11/15 06:08:06;;;;;;;14.30;10.00;;;8.20;99.90;;;;;;5047323;28;20522;-64
2021/11/15 06:10:33;;;;;;;15.73;10.37;;;8.20;99.90;;;;;;5048591;28;20452;-62
2021/11/15 06:12:59;;;;;;;12.90;9.90;;;8.10;99.90;;;;;;5048504;28;20527;-64
2021/11/15 06:15:26;;;;;;;13.83;10.20;;;8.20;99.90;;;;;;5048864;28;20551;-63
2021/11/15 06:17:53;;;;;;;13.03;8.80;;;8.10;99.90;;;;;;5047086;28;20551;-63
2021/11/15 06:20:21;;;;;;;16.67;11.63;;;8.20;99.90;;;;;;5052605;28;20428;-64
2021/11/15 06:22:48;;;;;;;15.60;10.60;;;8.20;99.90;;;;;;5052004;28;20447;-64
2021/11/15 06:25:16;;;;;;;13.63;9.47;;;8.20;99.90;;;;;;5052441;28;20444;-65
2021/11/15 06:27:44;;;;;;;16.63;9.80;;;8.20;99.90;;;;;;5050882;28;20522;-62
2021/11/15 06:30:14;;;;;;;13.00;9.10;;;8.20;99.90;;;;;;5052492;28;20459;-65
2021/11/15 06:32:42;;;;;;;14.97;9.83;;;8.20;99.90;;;;;;5052091;28;20447;-63
2021/11/15 06:35:10;;;;;;;16.13;9.67;;;8.20;99.90;;;;;;5051852;28;20484;-64
2021/11/15 06:37:38;;;;;;;14.40;10.33;;;8.20;99.90;;;;;;5050884;28;20468;-64
2021/11/15 06:40:07;;;;;;;15.00;10.50;;;8.20;99.90;;;;;;5051191;28;20436;-62
2021/11/15 06:42:34;;;;;;;16.53;11.03;;;8.20;99.90;;;;;;5050893;28;20436;-64
2021/11/15 06:45:01;;;;;;;13.90;10.00;;;8.20;99.90;;;;;;5051005;28;20441;-64
2021/11/15 06:47:33;;;;;;;11.20;8.33;;;8.20;99.90;;;;;;5050731;28;20545;-63
2021/11/15 06:50:00;;;;;;;11.73;9.30;;;8.20;99.90;;;;;;5051335;28;21032;-62
2021/11/15 06:52:28;;;;;;;17.97;10.87;;;8.20;99.90;;;;;;5048148;28;20600;-63
2021/11/15 06:54:57;;;;;;;16.67;10.90;;;8.10;99.90;;;;;;5044317;28;20480;-64
2021/11/15 06:57:24;;;;;;;13.87;10.40;;;8.10;99.90;;;;;;5039408;28;20808;-62
2021/11/15 06:59:52;;;;;;;12.83;8.73;;;8.20;99.90;;;;;;5043000;28;20460;-64
2021/11/15 07:02:18;;;;;;;15.03;11.00;;;8.10;99.90;;;;;;5041395;28;20863;-63
2021/11/15 07:04:46;;;;;;;15.10;10.57;;;8.10;99.90;;;;;;5050045;28;20440;-64
2021/11/15 07:07:13;;;;;;;12.93;9.43;;;8.10;99.90;;;;;;5049604;28;20539;-62
2021/11/15 07:09:40;;;;;;;14.70;10.50;;;8.10;99.90;;;;;;5051043;28;20444;-63
2021/11/15 07:12:10;;;;;;;14.50;9.00;;;8.10;99.90;;;;;;5050475;28;20448;-62
2021/11/15 07:14:36;;;;;;;16.37;10.90;;;8.20;99.90;;;;;;5050453;28;20570;-65
2021/11/15 07:17:04;;;;;;;17.00;10.40;;;8.10;99.90;;;;;;5049571;28;20476;-63
2021/11/15 07:19:31;;;;;;;16.00;11.07;;;8.00;99.90;;;;;;5051370;28;20464;-63
2021/11/15 07:21:58;;;;;;;16.27;9.80;;;8.00;99.90;;;;;;5051481;28;20801;-62
2021/11/15 07:24:25;;;;;;;17.17;10.37;;;8.00;99.90;;;;;;5051108;28;20555;-63
2021/11/15 07:26:52;;;;;;;12.10;9.30;;;8.00;99.90;;;;;;5049858;28;21254;-64
2021/11/15 07:29:21;;;;;;;17.60;9.83;;;8.00;99.90;;;;;;5050976;28;20469;-64
2021/11/15 07:31:48;;;;;;;16.73;10.70;;;8.00;99.90;;;;;;5050471;28;20457;-63
2021/11/15 07:34:15;;;;;;;15.07;9.93;;;8.00;99.90;;;;;;5050508;28;20498;-64
2021/11/15 07:36:41;;;;;;;15.20;9.87;;;8.00;99.90;;;;;;5049613;28;20523;-64
2021/11/15 07:39:09;;;;;;;17.00;10.10;;;8.00;99.90;;;;;;5051201;28;20520;-63
2021/11/15 07:41:37;;;;;;;13.47;8.60;;;7.90;99.90;;;;;;5051684;28;20534;-64
2021/11/15 07:44:04;;;;;;;12.07;9.47;;;7.90;99.90;;;;;;5051668;28;20449;-64
2021/11/15 07:46:32;;;;;;;16.53;11.37;;;8.00;99.90;;;;;;5050891;28;20497;-65
2021/11/15 07:48:59;;;;;;;13.10;9.80;;;8.00;99.90;;;;;;5051570;28;20571;-64
2021/11/15 07:51:26;;;;;;;15.90;9.90;;;8.00;99.90;;;;;;5051592;28;20552;-63
2021/11/15 07:53:53;;;;;;;13.83;9.80;;;8.00;99.90;;;;;;5051551;28;21014;-64
2021/11/15 07:56:20;;;;;;;13.57;10.20;;;8.10;99.90;;;;;;5050846;28;20565;-61
2021/11/15 07:58:46;;;;;;;16.10;9.60;;;8.10;99.90;;;;;;5051023;28;20479;-64
2021/11/15 08:01:13;;;;;;;12.77;9.03;;;8.10;99.90;;;;;;5051530;28;20461;-64
2021/11/15 08:03:42;;;;;;;14.73;9.37;;;8.10;99.90;;;;;;5051375;28;20519;-64
2021/11/15 08:06:10;;;;;;;13.83;9.53;;;8.10;99.90;;;;;;5051412;28;20477;-62
2021/11/15 08:08:38;;;;;;;15.23;9.47;;;8.20;99.90;;;;;;5050810;28;20939;-64
2021/11/15 08:11:08;;;;;;;13.40;9.33;;;8.20;99.90;;;;;;5051606;28;20541;-65
2021/11/15 08:13:35;;;;;;;14.27;10.30;;;8.30;99.90;;;;;;5051747;28;20494;-63
2021/11/15 08:16:02;;;;;;;15.57;9.07;;;8.30;99.90;;;;;;5051264;28;20563;-62
2021/11/15 08:18:29;;;;;;;15.60;9.83;;;8.30;99.90;;;;;;5050179;28;20859;-63
2021/11/15 08:20:59;;;;;;;15.93;10.50;;;8.20;99.90;;;;;;5050526;28;20559;-64
2021/11/15 08:23:27;;;;;;;13.27;8.87;;;8.20;99.90;;;;;;5051005;28;20480;-64
2021/11/15 08:26:26;;;;;;;15.00;9.80;;;8.20;99.90;;;;;;5050891;28;20558;-64
2021/11/15 08:28:53;;;;;;;14.20;9.87;;;8.20;99.90;;;;;;5050699;28;20455;-65
2021/11/15 08:31:20;;;;;;;13.60;9.37;;;8.20;99.90;;;;;;5051306;28;20481;-63
2021/11/15 08:33:47;;;;;;;14.93;10.10;;;8.20;99.90;;;;;;5050895;28;20544;-63
2021/11/15 08:36:16;;;;;;;13.13;9.50;;;8.20;99.90;;;;;;5050152;28;20491;-62
2021/11/15 08:38:50;;;;;;;19.40;10.37;;;8.10;99.90;;;;;;5050264;28;20528;-63
2021/11/15 08:41:19;;;;;;;14.50;10.10;;;8.20;99.90;;;;;;5050400;28;20475;-63
2021/11/15 08:43:46;;;;;;;20.33;10.43;;;8.20;99.90;;;;;;5050560;28;20441;-63
2021/11/15 08:46:16;;;;;;;15.50;9.70;;;8.30;99.90;;;;;;5050210;28;21001;-63
2021/11/15 08:48:45;;;;;;;14.10;9.70;;;8.30;99.90;;;;;;5049972;28;20437;-63
2021/11/15 08:51:13;;;;;;;16.47;10.40;;;8.40;99.90;;;;;;5050552;28;20449;-64
2021/11/15 08:53:42;;;;;;;15.13;10.37;;;8.40;99.90;;;;;;5050349;28;20528;-64
2021/11/15 08:56:10;;;;;;;16.03;9.83;;;8.50;99.90;;;;;;5049936;28;20522;-57
2021/11/15 08:58:38;;;;;;;16.87;9.97;;;8.50;99.90;;;;;;5049396;28;20514;-64
2021/11/15 09:01:06;;;;;;;14.70;9.50;;;8.50;99.90;;;;;;5050454;28;20479;-64
2021/11/15 09:03:34;;;;;;;16.33;10.50;;;8.50;99.90;;;;;;5050420;28;20448;-64
2021/11/15 09:06:01;;;;;;;14.93;9.43;;;8.50;99.90;;;;;;5049981;28;20460;-64
2021/11/15 09:08:28;;;;;;;16.67;10.87;;;8.50;99.90;;;;;;5048930;28;20872;-64
2021/11/15 09:10:56;;;;;;;15.10;9.67;;;8.40;99.90;;;;;;5050149;28;20464;-64
2021/11/15 09:13:23;;;;;;;14.13;9.20;;;8.40;99.90;;;;;;5050469;28;20455;-63
2021/11/15 09:15:50;;;;;;;13.53;11.37;;;8.50;99.90;;;;;;5050101;28;20516;-62
2021/11/15 09:18:17;;;;;;;11.73;9.73;;;8.50;99.90;;;;;;5048922;28;20569;-65
2021/11/15 09:20:44;;;;;;;15.50;10.70;;;8.60;99.90;;;;;;5050214;28;20815;-65
2021/11/15 09:23:11;;;;;;;15.63;10.23;;;8.60;99.90;;;;;;5049926;28;20916;-64
2021/11/15 09:25:40;;;;;;;16.47;10.80;;;8.70;99.90;;;;;;5049731;28;20472;-63
2021/11/15 09:28:09;;;;;;;13.37;9.73;;;8.70;99.90;;;;;;5048482;28;20950;-64
2021/11/15 09:30:36;;;;;;;15.93;11.10;;;8.70;99.90;;;;;;5049837;28;20483;-64
2021/11/15 09:33:03;;;;;;;14.57;10.30;;;8.80;99.90;;;;;;5049856;28;20498;-64
2021/11/15 09:35:30;;;;;;;16.07;10.33;;;8.80;99.90;;;;;;5049680;28;20564;-64
2021/11/15 09:37:57;;;;;;;15.27;10.13;;;8.90;99.90;;;;;;5048703;28;20913;-64
2021/11/15 09:40:24;;;;;;;13.00;10.37;;;8.90;99.90;;;;;;5049687;28;20531;-62
2021/11/15 09:42:55;;;;;;;13.40;9.23;;;9.00;99.90;;;;;;5049486;28;20440;-64
2021/11/15 09:45:23;;;;;;;14.70;9.60;;;9.00;99.90;;;;;;5049548;28;20490;-62
2021/11/15 09:47:50;;;;;;;14.63;9.83;;;9.00;99.90;;;;;;5048611;28;20567;-63
2021/11/15 09:50:18;;;;;;;16.07;10.47;;;9.00;99.90;;;;;;5049507;28;20939;-64
2021/11/15 09:52:45;;;;;;;16.10;11.53;;;8.90;99.90;;;;;;5049493;28;20858;-64
2021/11/15 09:55:12;;;;;;;14.70;10.20;;;9.00;99.90;;;;;;5054141;28;20472;-63
2021/11/15 09:57:46;;;;;;;15.67;12.13;;;9.00;99.90;;;;;;5052886;28;20499;-64
2021/11/15 10:00:15;;;;;;;14.87;10.53;;;9.00;99.90;;;;;;5053834;28;20835;-63
2021/11/15 10:02:44;;;;;;;17.13;11.10;;;8.90;99.90;;;;;;5053569;28;20495;-62
2021/11/15 10:05:11;;;;;;;17.20;10.37;;;8.90;99.90;;;;;;5053905;28;20987;-64
2021/11/15 10:07:41;;;;;;;16.73;11.27;;;9.00;99.90;;;;;;5052341;28;20478;-64
2021/11/15 10:10:34;;;;;;;16.73;11.53;;;9.00;99.90;;;;;;5053246;28;20512;-61
2021/11/15 10:13:27;;;;;;;14.10;10.40;;;9.00;99.90;;;;;;5053380;28;20865;-64
2021/11/15 10:16:04;;;;;;;15.17;10.50;;;9.10;99.90;;;;;;5038950;28;20484;-64
2021/11/15 10:18:37;;;;;;;18.67;11.40;;;9.10;99.90;;;;;;5052307;28;20543;-64
2021/11/15 10:21:06;;;;;;;16.17;10.70;;;9.20;99.90;;;;;;5053378;28;20459;-63
2021/11/15 10:23:37;;;;;;;15.13;10.33;;;9.30;99.90;;;;;;5053194;28;20437;-61
2021/11/15 10:26:18;;;;;;;15.63;10.77;;;9.30;99.90;;;;;;5053377;28;20479;-65
2021/11/15 10:28:45;;;;;;;17.23;11.53;;;9.30;99.90;;;;;;5053124;28;20933;-63
2021/11/15 10:31:44;;;;;;;15.43;12.53;;;9.30;99.90;;;;;;5053230;28;20598;-60
2021/11/15 10:34:15;;;;;;;15.53;11.57;;;9.30;99.90;;;;;;4991188;28;20514;-63
2021/11/15 10:36:59;;;;;;;12.33;10.67;;;9.30;99.90;;;;;;5039784;28;20917;-63
2021/11/15 10:39:30;;;;;;;13.50;10.10;;;9.20;99.90;;;;;;5050980;28;20480;-63
2021/11/15 10:42:02;;;;;;;14.70;10.27;;;9.20;99.90;;;;;;5053192;28;20521;-64
2021/11/15 10:44:30;;;;;;;17.10;11.57;;;9.30;99.90;;;;;;5052963;28;20468;-63
2021/11/15 10:46:59;;;;;;;14.80;10.73;;;9.30;99.90;;;;;;5051713;28;20460;-63
2021/11/15 10:49:27;;;;;;;16.83;13.40;;;9.30;99.90;;;;;;5052888;28;20946;-63
2021/11/15 10:51:59;;;;;;;15.50;10.80;;;9.30;99.90;;;;;;5052882;28;20495;-65
2021/11/15 10:54:32;;;;;;;14.67;10.50;;;9.20;99.90;;;;;;5053160;28;20580;-63
2021/11/15 10:57:15;;;;;;;15.20;11.20;;;9.20;99.90;;;;;;5051629;28;20476;-63
2021/11/15 10:59:42;;;;;;;17.07;10.97;;;9.30;99.90;;;;;;5052694;28;20486;-64
2021/11/15 11:02:26;;;;;;;19.50;13.70;;;9.20;99.90;;;;;;5052861;28;20882;-64
2021/11/15 11:05:09;;;;;;;19.60;12.17;;;9.20;99.90;;;;;;5052589;28;20530;-63
2021/11/15 11:07:36;;;;;;;17.30;11.40;;;9.30;99.90;;;;;;5051647;28;20526;-64
2021/11/15 11:10:05;;;;;;;17.07;12.07;;;9.40;99.90;;;;;;5052715;28;20476;-65
2021/11/15 11:12:34;;;;;;;21.03;11.43;;;9.40;99.90;;;;;;5052353;28;20528;-63
2021/11/15 11:15:19;;;;;;;17.63;11.63;;;9.50;99.90;;;;;;5052713;28;20445;-64
2021/11/15 11:18:15;;;;;;;18.10;12.67;;;9.60;99.90;;;;;;5051148;28;20483;-63
2021/11/15 11:26:40;;;;;;;17.67;13.40;;;9.50;99.90;;;;;;5025028;28;20543;-62
2021/11/15 11:29:11;;;;;;;19.40;12.80;;;9.40;99.90;;;;;;5052127;28;20981;-62
2021/11/15 11:31:40;;;;;;;17.20;12.30;;;9.40;99.90;;;;;;5051984;28;20444;-63
2021/11/15 11:34:07;;;;;;;17.40;11.70;;;9.50;99.90;;;;;;5051993;28;20498;-63
2021/11/15 11:36:36;;;;;;;21.30;12.47;;;9.40;99.90;;;;;;5050494;28;20573;-64
2021/11/15 11:39:08;;;;;;;17.07;12.00;;;9.40;99.90;;;;;;5051948;28;20488;-63
2021/11/15 11:41:35;;;;;;;16.70;11.80;;;9.40;99.90;;;;;;5051749;28;20436;-63
2021/11/15 11:44:07;;;;;;;16.60;11.77;;;9.40;99.90;;;;;;5052202;28;20491;-64
2021/11/15 11:46:35;;;;;;;16.83;12.17;;;9.40;99.90;;;;;;5050891;28;20632;-63
2021/11/15 11:49:02;;;;;;;15.27;11.30;;;9.50;99.90;;;;;;5051825;28;20476;-64
2021/11/15 11:51:29;;;;;;;16.63;12.00;;;9.50;99.90;;;;;;5051593;28;20447;-64
2021/11/15 11:54:10;;;;;;;16.07;11.60;;;9.50;99.90;;;;;;5051675;28;20456;-60
2021/11/15 11:56:37;;;;;;;17.60;12.80;;;9.50;99.90;;;;;;5050664;28;21015;-65
2021/11/15 11:59:13;;;;;;;17.57;11.97;;;9.50;99.90;;;;;;5051426;28;20467;-64
2021/11/15 12:01:41;;;;;;;18.53;12.77;;;9.30;99.90;;;;;;5051729;28;20480;-63
2021/11/15 12:04:14;;;;;;;19.40;13.57;;;9.20;99.90;;;;;;5051289;28;20447;-64
2021/11/15 12:06:42;;;;;;;18.93;13.73;;;9.10;99.90;;;;;;5050844;28;20472;-64
2021/11/15 12:09:12;;;;;;;16.03;12.30;;;9.10;99.90;;;;;;5051374;28;20939;-62
2021/11/15 12:11:43;;;;;;;16.63;12.13;;;9.20;99.90;;;;;;5051347;28;20491;-63
2021/11/15 12:14:29;;;;;;;19.63;13.87;;;9.20;99.90;;;;;;5051204;28;20433;-64
2021/11/15 12:17:01;;;;;;;15.90;12.50;;;9.30;99.90;;;;;;5049383;28;20526;-64
2021/11/15 12:20:05;;;;;;;15.20;11.40;;;9.30;99.90;;;;;;5051524;28;20839;-63
2021/11/15 12:22:46;;;;;;;14.73;12.10;;;9.40;99.90;;;;;;5051617;28;20952;-64
2021/11/15 12:25:20;;;;;;;16.47;13.03;;;9.40;99.90;;;;;;5050971;28;20502;-64
2021/11/15 12:27:51;;;;;;;18.37;13.83;;;9.40;99.90;;;;;;5049792;28;20496;-64
2021/11/15 12:30:20;;;;;;;14.17;10.83;;;9.40;99.90;;;;;;5050939;28;20518;-64
2021/11/15 12:33:08;;;;;;;15.40;12.50;;;9.50;99.90;;;;;;5050946;28;20472;-64
2021/11/15 12:36:01;;;;;;;17.10;11.70;;;9.50;99.90;;;;;;5050972;28;20451;-63
2021/11/15 12:38:50;;;;;;;18.27;11.63;;;9.50;99.90;;;;;;5049758;28;20444;-64
2021/11/15 12:41:40;;;;;;;17.73;13.00;;;9.50;99.90;;;;;;5044129;28;20475;-65
2021/11/15 12:44:29;;;;;;;16.40;12.50;;;9.50;99.90;;;;;;5042834;28;20448;-66
2021/11/15 12:47:00;;;;;;;15.07;11.90;;;9.50;99.90;;;;;;5038761;28;20457;-62
2021/11/15 12:49:35;;;;;;;17.83;13.70;;;9.60;99.90;;;;;;5044469;28;20448;-65
2021/11/15 12:52:22;;;;;;;18.33;12.87;;;9.60;99.90;;;;;;5040707;28;20472;-64
2021/11/15 12:54:53;;;;;;;16.70;13.20;;;9.60;99.90;;;;;;5046300;28;21117;-63